sensor_id;sensor_type;location;lat;lon;timestamp;temperature;humidity
22674;DHT22;11504;43.334;21.918;2024-01-11T00:01:56;-2.4;100.0
22674;DHT22;11504;43.334;21.918;2024-01-11T00:06:33;-2.5;100.0
22674;DHT22;11504;43.334;21.918;2024-01-11T00:11:17;-2.5;100.0
22674;DHT22;11504;43.334;21.918;2024-01-11T00:15:54;-2.6;100.0
22674;DHT22;11504;43.334;21.918;2024-01-11T00:20:30;-2.6;100.0
22674;DHT22;11504;43.334;21.918;2024-01-11T00:25:08;-2.6;100.0
22674;DHT22;11504;43.334;21.918;2024-01-11T00:29:44;-2.6;100.0
22674;DHT22;11504;43.334;21.918;2024-01-11T00:34:21;-2.6;100.0
22674;DHT22;11504;43.334;21.918;2024-01-11T00:38:57;-2.5;100.0
22674;DHT22;11504;43.334;21.918;2024-01-11T00:43:33;-2.5;100.0
22674;DHT22;11504;43.334;21.918;2024-01-11T00:48:09;-2.5;100.0
22674;DHT22;11504;43.334;21.918;2024-01-11T00:52:46;-2.5;100.0
22674;DHT22;11504;43.334;21.918;2024-01-11T00:57:22;-2.5;100.0
22674;DHT22;11504;43.334;21.918;2024-01-11T01:01:58;-2.5;100.0
22674;DHT22;11504;43.334;21.918;2024-01-11T01:06:35;-2.5;100.0
22674;DHT22;11504;43.334;21.918;2024-01-11T01:11:11;-2.5;100.0
22674;DHT22;11504;43.334;21.918;2024-01-11T01:15:48;-2.5;100.0
22674;DHT22;11504;43.334;21.918;2024-01-11T01:20:25;-2.5;100.0
22674;DHT22;11504;43.334;21.918;2024-01-11T01:25:04;-2.8;100.0
22674;DHT22;11504;43.334;21.918;2024-01-11T01:29:43;-2.8;100.0
22674;DHT22;11504;43.334;21.918;2024-01-11T01:34:20;-2.8;100.0
22674;DHT22;11504;43.334;21.918;2024-01-11T01:38:56;-3.1;100.0
22674;DHT22;11504;43.334;21.918;2024-01-11T01:43:33;-3.1;100.0
22674;DHT22;11504;43.334;21.918;2024-01-11T01:48:09;-3.2;100.0
22674;DHT22;11504;43.334;21.918;2024-01-11T01:52:49;-3.2;100.0
22674;DHT22;11504;43.334;21.918;2024-01-11T01:57:29;-3.3;100.0
22674;DHT22;11504;43.334;21.918;2024-01-11T02:02:11;-3.3;100.0
22674;DHT22;11504;43.334;21.918;2024-01-11T02:06:51;-3.2;100.0
22674;DHT22;11504;43.334;21.918;2024-01-11T02:11:30;-3.2;100.0
22674;DHT22;11504;43.334;21.918;2024-01-11T02:16:07;-3.1;100.0
22674;DHT22;11504;43.334;21.918;2024-01-11T02:20:43;-3.1;100.0
22674;DHT22;11504;43.334;21.918;2024-01-11T02:25:20;-3.2;100.0
22674;DHT22;11504;43.334;21.918;2024-01-11T02:29:56;-3.2;100.0
22674;DHT22;11504;43.334;21.918;2024-01-11T02:34:34;-3.2;100.0
22674;DHT22;11504;43.334;21.918;2024-01-11T02:39:17;-3.4;100.0
22674;DHT22;11504;43.334;21.918;2024-01-11T02:44:01;-3.4;100.0
22674;DHT22;11504;43.334;21.918;2024-01-11T02:48:37;-3.6;100.0
22674;DHT22;11504;43.334;21.918;2024-01-11T02:53:13;-3.6;100.0
22674;DHT22;11504;43.334;21.918;2024-01-11T02:57:50;-3.7;100.0
22674;DHT22;11504;43.334;21.918;2024-01-11T03:02:27;-3.7;100.0
22674;DHT22;11504;43.334;21.918;2024-01-11T03:07:03;-3.6;100.0
22674;DHT22;11504;43.334;21.918;2024-01-11T03:11:40;-3.6;100.0
22674;DHT22;11504;43.334;21.918;2024-01-11T03:16:16;-3.6;100.0
22674;DHT22;11504;43.334;21.918;2024-01-11T03:20:52;-3.6;100.0
22674;DHT22;11504;43.334;21.918;2024-01-11T03:25:30;-3.8;100.0
22674;DHT22;11504;43.334;21.918;2024-01-11T03:30:08;-3.8;100.0
22674;DHT22;11504;43.334;21.918;2024-01-11T03:34:45;-4.0;100.0
22674;DHT22;11504;43.334;21.918;2024-01-11T03:39:22;-4.0;100.0
22674;DHT22;11504;43.334;21.918;2024-01-11T03:44:01;-4.0;100.0
22674;DHT22;11504;43.334;21.918;2024-01-11T03:48:37;-3.9;100.0
22674;DHT22;11504;43.334;21.918;2024-01-11T03:53:13;-3.9;100.0
22674;DHT22;11504;43.334;21.918;2024-01-11T03:57:51;-3.8;100.0
22674;DHT22;11504;43.334;21.918;2024-01-11T04:02:28;-3.8;100.0
22674;DHT22;11504;43.334;21.918;2024-01-11T04:07:05;-3.8;100.0
22674;DHT22;11504;43.334;21.918;2024-01-11T04:11:42;-3.8;100.0
22674;DHT22;11504;43.334;21.918;2024-01-11T04:16:18;-3.9;100.0
22674;DHT22;11504;43.334;21.918;2024-01-11T04:20:56;-3.9;100.0
22674;DHT22;11504;43.334;21.918;2024-01-11T04:25:33;-4.2;100.0
22674;DHT22;11504;43.334;21.918;2024-01-11T04:30:12;-4.2;100.0
22674;DHT22;11504;43.334;21.918;2024-01-11T04:34:49;-4.5;100.0
22674;DHT22;11504;43.334;21.918;2024-01-11T04:39:25;-4.5;100.0
22674;DHT22;11504;43.334;21.918;2024-01-11T04:44:02;-4.5;100.0
22674;DHT22;11504;43.334;21.918;2024-01-11T04:48:38;-4.6;100.0
22674;DHT22;11504;43.334;21.918;2024-01-11T04:53:14;-4.6;100.0
22674;DHT22;11504;43.334;21.918;2024-01-11T04:57:51;-4.6;100.0
22674;DHT22;11504;43.334;21.918;2024-01-11T05:02:27;-4.6;100.0
22674;DHT22;11504;43.334;21.918;2024-01-11T05:07:03;-4.5;100.0
22674;DHT22;11504;43.334;21.918;2024-01-11T05:11:40;-4.5;100.0
22674;DHT22;11504;43.334;21.918;2024-01-11T05:16:21;-4.4;100.0
22674;DHT22;11504;43.334;21.918;2024-01-11T05:21:02;-4.4;100.0
22674;DHT22;11504;43.334;21.918;2024-01-11T05:25:39;-4.4;100.0
22674;DHT22;11504;43.334;21.918;2024-01-11T05:30:16;-4.4;100.0
22674;DHT22;11504;43.334;21.918;2024-01-11T05:34:52;-4.5;100.0
22674;DHT22;11504;43.334;21.918;2024-01-11T05:39:28;-4.5;100.0
22674;DHT22;11504;43.334;21.918;2024-01-11T05:44:05;-4.5;100.0
22674;DHT22;11504;43.334;21.918;2024-01-11T05:48:42;-4.6;100.0
22674;DHT22;11504;43.334;21.918;2024-01-11T05:53:18;-4.6;100.0
22674;DHT22;11504;43.334;21.918;2024-01-11T05:57:55;-4.6;100.0
22674;DHT22;11504;43.334;21.918;2024-01-11T06:02:31;-4.6;100.0
22674;DHT22;11504;43.334;21.918;2024-01-11T06:07:07;-4.5;100.0
22674;DHT22;11504;43.334;21.918;2024-01-11T06:11:43;-4.5;100.0
22674;DHT22;11504;43.334;21.918;2024-01-11T06:16:20;-4.4;100.0
22674;DHT22;11504;43.334;21.918;2024-01-11T06:20:56;-4.4;100.0
22674;DHT22;11504;43.334;21.918;2024-01-11T06:25:32;-4.4;100.0
22674;DHT22;11504;43.334;21.918;2024-01-11T06:30:12;-4.4;100.0
22674;DHT22;11504;43.334;21.918;2024-01-11T06:34:49;-4.4;100.0
22674;DHT22;11504;43.334;21.918;2024-01-11T06:39:26;-4.4;100.0
22674;DHT22;11504;43.334;21.918;2024-01-11T06:44:03;-4.4;100.0
22674;DHT22;11504;43.334;21.918;2024-01-11T06:48:40;-3.9;100.0
22674;DHT22;11504;43.334;21.918;2024-01-11T06:53:17;-3.9;100.0
22674;DHT22;11504;43.334;21.918;2024-01-11T06:57:54;-3.4;100.0
22674;DHT22;11504;43.334;21.918;2024-01-11T07:02:30;-3.4;100.0
22674;DHT22;11504;43.334;21.918;2024-01-11T07:07:07;-2.2;100.0
22674;DHT22;11504;43.334;21.918;2024-01-11T07:11:43;-2.2;100.0
22674;DHT22;11504;43.334;21.918;2024-01-11T07:16:20;-1.1;100.0
22674;DHT22;11504;43.334;21.918;2024-01-11T07:20:59;-1.1;100.0
22674;DHT22;11504;43.334;21.918;2024-01-11T07:25:36;0.3;100.0
22674;DHT22;11504;43.334;21.918;2024-01-11T07:30:13;0.3;100.0
22674;DHT22;11504;43.334;21.918;2024-01-11T07:34:50;0.3;100.0
22674;DHT22;11504;43.334;21.918;2024-01-11T07:39:26;1.7;100.0
22674;DHT22;11504;43.334;21.918;2024-01-11T07:44:03;1.7;100.0
22674;DHT22;11504;43.334;21.918;2024-01-11T07:48:39;2.6;100.0
22674;DHT22;11504;43.334;21.918;2024-01-11T07:53:15;2.6;100.0
22674;DHT22;11504;43.334;21.918;2024-01-11T07:57:52;3.5;100.0
22674;DHT22;11504;43.334;21.918;2024-01-11T08:02:28;3.5;100.0
22674;DHT22;11504;43.334;21.918;2024-01-11T08:07:04;4.4;100.0
22674;DHT22;11504;43.334;21.918;2024-01-11T08:11:41;4.4;100.0
22674;DHT22;11504;43.334;21.918;2024-01-11T08:16:18;5.3;100.0
22674;DHT22;11504;43.334;21.918;2024-01-11T08:20:55;5.3;100.0
22674;DHT22;11504;43.334;21.918;2024-01-11T08:25:31;5.8;100.0
22674;DHT22;11504;43.334;21.918;2024-01-11T08:30:08;5.8;100.0
22674;DHT22;11504;43.334;21.918;2024-01-11T08:34:45;5.8;100.0
22674;DHT22;11504;43.334;21.918;2024-01-11T08:39:21;6.3;100.0
22674;DHT22;11504;43.334;21.918;2024-01-11T08:43:58;6.3;100.0
22674;DHT22;11504;43.334;21.918;2024-01-11T08:48:35;6.8;100.0
22674;DHT22;11504;43.334;21.918;2024-01-11T08:53:11;6.8;100.0
22674;DHT22;11504;43.334;21.918;2024-01-11T08:57:47;7.2;100.0
22674;DHT22;11504;43.334;21.918;2024-01-11T09:02:23;7.2;100.0
22674;DHT22;11504;43.334;21.918;2024-01-11T09:07:00;7.4;100.0
22674;DHT22;11504;43.334;21.918;2024-01-11T09:11:36;7.4;100.0
22674;DHT22;11504;43.334;21.918;2024-01-11T09:16:15;7.6;100.0
22674;DHT22;11504;43.334;21.918;2024-01-11T09:20:52;7.6;100.0
22674;DHT22;11504;43.334;21.918;2024-01-11T09:25:29;7.6;100.0
22674;DHT22;11504;43.334;21.918;2024-01-11T09:30:08;7.6;100.0
22674;DHT22;11504;43.334;21.918;2024-01-11T09:34:46;7.6;100.0
22674;DHT22;11504;43.334;21.918;2024-01-11T09:39:23;7.6;100.0
22674;DHT22;11504;43.334;21.918;2024-01-11T09:44:05;7.6;100.0
22674;DHT22;11504;43.334;21.918;2024-01-11T09:48:46;7.2;100.0
22674;DHT22;11504;43.334;21.918;2024-01-11T09:53:32;7.2;100.0
22674;DHT22;11504;43.334;21.918;2024-01-11T09:58:11;6.7;100.0
22674;DHT22;11504;43.334;21.918;2024-01-11T10:02:49;6.7;100.0
22674;DHT22;11504;43.334;21.918;2024-01-11T10:07:30;6.6;100.0
22674;DHT22;11504;43.334;21.918;2024-01-11T10:12:10;6.6;100.0
22674;DHT22;11504;43.334;21.918;2024-01-11T10:16:48;6.6;100.0
22674;DHT22;11504;43.334;21.918;2024-01-11T10:21:27;6.6;100.0
22674;DHT22;11504;43.334;21.918;2024-01-11T10:26:03;6.4;100.0
22674;DHT22;11504;43.334;21.918;2024-01-11T10:30:40;6.4;100.0
22674;DHT22;11504;43.334;21.918;2024-01-11T10:35:16;6.1;100.0
22674;DHT22;11504;43.334;21.918;2024-01-11T10:39:54;6.1;100.0
22674;DHT22;11504;43.334;21.918;2024-01-11T10:44:46;6.1;100.0
22674;DHT22;11504;43.334;21.918;2024-01-11T10:49:34;6.0;100.0
22674;DHT22;11504;43.334;21.918;2024-01-11T10:54:22;6.0;100.0
22674;DHT22;11504;43.334;21.918;2024-01-11T10:59:03;6.0;100.0
22674;DHT22;11504;43.334;21.918;2024-01-11T11:03:41;6.0;100.0
22674;DHT22;11504;43.334;21.918;2024-01-11T11:08:22;6.1;100.0
22674;DHT22;11504;43.334;21.918;2024-01-11T11:13:00;6.1;100.0
22674;DHT22;11504;43.334;21.918;2024-01-11T11:17:41;6.2;100.0
22674;DHT22;11504;43.334;21.918;2024-01-11T11:22:19;6.2;100.0
22674;DHT22;11504;43.334;21.918;2024-01-11T11:26:55;5.9;100.0
22674;DHT22;11504;43.334;21.918;2024-01-11T11:31:35;5.9;100.0
22674;DHT22;11504;43.334;21.918;2024-01-11T11:36:17;5.6;100.0
22674;DHT22;11504;43.334;21.918;2024-01-11T11:40:57;5.6;100.0
22674;DHT22;11504;43.334;21.918;2024-01-11T11:45:37;5.2;100.0
22674;DHT22;11504;43.334;21.918;2024-01-11T11:50:16;5.2;100.0
22674;DHT22;11504;43.334;21.918;2024-01-11T11:54:53;5.2;100.0
22674;DHT22;11504;43.334;21.918;2024-01-11T11:59:35;4.8;100.0
22674;DHT22;11504;43.334;21.918;2024-01-11T12:04:14;4.8;100.0
22674;DHT22;11504;43.334;21.918;2024-01-11T12:08:53;4.6;100.0
22674;DHT22;11504;43.334;21.918;2024-01-11T12:13:32;4.6;100.0
22674;DHT22;11504;43.334;21.918;2024-01-11T12:18:09;4.3;100.0
22674;DHT22;11504;43.334;21.918;2024-01-11T12:22:46;4.3;100.0
22674;DHT22;11504;43.334;21.918;2024-01-11T12:27:23;4.3;100.0
22674;DHT22;11504;43.334;21.918;2024-01-11T12:32:00;4.3;100.0
22674;DHT22;11504;43.334;21.918;2024-01-11T12:36:38;4.3;100.0
22674;DHT22;11504;43.334;21.918;2024-01-11T12:41:16;4.3;100.0
22674;DHT22;11504;43.334;21.918;2024-01-11T12:45:53;4.4;100.0
22674;DHT22;11504;43.334;21.918;2024-01-11T12:50:31;4.4;100.0
22674;DHT22;11504;43.334;21.918;2024-01-11T12:55:19;4.4;100.0
22674;DHT22;11504;43.334;21.918;2024-01-11T13:00:10;4.4;100.0
22674;DHT22;11504;43.334;21.918;2024-01-11T13:04:50;4.4;100.0
22674;DHT22;11504;43.334;21.918;2024-01-11T13:09:26;4.4;100.0
22674;DHT22;11504;43.334;21.918;2024-01-11T13:14:03;4.4;100.0
22674;DHT22;11504;43.334;21.918;2024-01-11T13:18:39;4.4;100.0
22674;DHT22;11504;43.334;21.918;2024-01-11T13:23:20;4.4;100.0
22674;DHT22;11504;43.334;21.918;2024-01-11T13:27:56;4.4;100.0
22674;DHT22;11504;43.334;21.918;2024-01-11T13:32:32;4.4;100.0
22674;DHT22;11504;43.334;21.918;2024-01-11T13:37:10;4.3;100.0
22674;DHT22;11504;43.334;21.918;2024-01-11T13:41:46;4.3;100.0
22674;DHT22;11504;43.334;21.918;2024-01-11T13:46:22;4.3;100.0
22674;DHT22;11504;43.334;21.918;2024-01-11T13:50:59;4.3;100.0
22674;DHT22;11504;43.334;21.918;2024-01-11T13:55:35;4.3;100.0
22674;DHT22;11504;43.334;21.918;2024-01-11T14:00:13;4.3;100.0
22674;DHT22;11504;43.334;21.918;2024-01-11T14:04:51;4.3;100.0
22674;DHT22;11504;43.334;21.918;2024-01-11T14:09:27;4.2;100.0
22674;DHT22;11504;43.334;21.918;2024-01-11T14:14:03;4.2;100.0
22674;DHT22;11504;43.334;21.918;2024-01-11T14:18:39;4.1;100.0
22674;DHT22;11504;43.334;21.918;2024-01-11T14:23:15;4.1;100.0
22674;DHT22;11504;43.334;21.918;2024-01-11T14:27:51;4.0;100.0
22674;DHT22;11504;43.334;21.918;2024-01-11T14:32:28;4.0;100.0
22674;DHT22;11504;43.334;21.918;2024-01-11T14:37:05;3.8;100.0
22674;DHT22;11504;43.334;21.918;2024-01-11T14:41:41;3.8;100.0
22674;DHT22;11504;43.334;21.918;2024-01-11T14:46:17;3.6;100.0
22674;DHT22;11504;43.334;21.918;2024-01-11T14:50:53;3.6;100.0
22674;DHT22;11504;43.334;21.918;2024-01-11T14:55:30;3.4;100.0
22674;DHT22;11504;43.334;21.918;2024-01-11T15:00:08;3.4;100.0
22674;DHT22;11504;43.334;21.918;2024-01-11T15:04:50;3.4;100.0
22674;DHT22;11504;43.334;21.918;2024-01-11T15:09:27;3.2;100.0
22674;DHT22;11504;43.334;21.918;2024-01-11T15:14:03;3.2;100.0
22674;DHT22;11504;43.334;21.918;2024-01-11T15:18:40;3.0;100.0
22674;DHT22;11504;43.334;21.918;2024-01-11T15:23:16;3.0;100.0
22674;DHT22;11504;43.334;21.918;2024-01-11T15:27:53;2.8;100.0
22674;DHT22;11504;43.334;21.918;2024-01-11T15:32:29;2.8;100.0
22674;DHT22;11504;43.334;21.918;2024-01-11T15:37:07;2.6;100.0
22674;DHT22;11504;43.334;21.918;2024-01-11T15:41:46;2.6;100.0
22674;DHT22;11504;43.334;21.918;2024-01-11T15:46:22;2.4;100.0
22674;DHT22;11504;43.334;21.918;2024-01-11T15:51:00;2.4;100.0
22674;DHT22;11504;43.334;21.918;2024-01-11T15:55:36;2.3;100.0
22674;DHT22;11504;43.334;21.918;2024-01-11T16:00:14;2.3;100.0
22674;DHT22;11504;43.334;21.918;2024-01-11T16:04:52;2.3;100.0
22674;DHT22;11504;43.334;21.918;2024-01-11T16:09:28;2.2;100.0
22674;DHT22;11504;43.334;21.918;2024-01-11T16:14:04;2.2;100.0
22674;DHT22;11504;43.334;21.918;2024-01-11T16:18:41;2.0;100.0
22674;DHT22;11504;43.334;21.918;2024-01-11T16:23:17;2.0;100.0
22674;DHT22;11504;43.334;21.918;2024-01-11T16:27:54;1.8;100.0
22674;DHT22;11504;43.334;21.918;2024-01-11T16:32:30;1.8;100.0
22674;DHT22;11504;43.334;21.918;2024-01-11T16:37:07;1.6;100.0
22674;DHT22;11504;43.334;21.918;2024-01-11T16:41:44;1.6;100.0
22674;DHT22;11504;43.334;21.918;2024-01-11T16:46:20;1.6;100.0
22674;DHT22;11504;43.334;21.918;2024-01-11T16:50:56;1.6;100.0
22674;DHT22;11504;43.334;21.918;2024-01-11T16:55:32;1.5;100.0
22674;DHT22;11504;43.334;21.918;2024-01-11T17:00:10;1.5;100.0
22674;DHT22;11504;43.334;21.918;2024-01-11T17:04:48;1.5;100.0
22674;DHT22;11504;43.334;21.918;2024-01-11T17:09:24;1.4;100.0
22674;DHT22;11504;43.334;21.918;2024-01-11T17:14:01;1.4;100.0
22674;DHT22;11504;43.334;21.918;2024-01-11T17:18:37;1.2;100.0
22674;DHT22;11504;43.334;21.918;2024-01-11T17:23:13;1.2;100.0
22674;DHT22;11504;43.334;21.918;2024-01-11T17:27:49;1.0;100.0
22674;DHT22;11504;43.334;21.918;2024-01-11T17:32:26;1.0;100.0
22674;DHT22;11504;43.334;21.918;2024-01-11T17:37:02;0.9;100.0
22674;DHT22;11504;43.334;21.918;2024-01-11T17:41:39;0.9;100.0
22674;DHT22;11504;43.334;21.918;2024-01-11T17:46:22;0.8;100.0
22674;DHT22;11504;43.334;21.918;2024-01-11T17:50:58;0.8;100.0
22674;DHT22;11504;43.334;21.918;2024-01-11T17:55:35;0.7;100.0
22674;DHT22;11504;43.334;21.918;2024-01-11T18:00:13;0.7;100.0
22674;DHT22;11504;43.334;21.918;2024-01-11T18:04:50;0.7;100.0
22674;DHT22;11504;43.334;21.918;2024-01-11T18:09:27;0.6;100.0
22674;DHT22;11504;43.334;21.918;2024-01-11T18:14:03;0.6;100.0
22674;DHT22;11504;43.334;21.918;2024-01-11T18:18:39;0.6;100.0
22674;DHT22;11504;43.334;21.918;2024-01-11T18:23:15;0.6;100.0
22674;DHT22;11504;43.334;21.918;2024-01-11T18:27:51;0.4;100.0
22674;DHT22;11504;43.334;21.918;2024-01-11T18:32:27;0.4;100.0
22674;DHT22;11504;43.334;21.918;2024-01-11T18:37:04;0.3;100.0
22674;DHT22;11504;43.334;21.918;2024-01-11T18:41:40;0.3;100.0
22674;DHT22;11504;43.334;21.918;2024-01-11T18:46:17;0.3;100.0
22674;DHT22;11504;43.334;21.918;2024-01-11T18:50:54;0.3;100.0
22674;DHT22;11504;43.334;21.918;2024-01-11T18:55:31;0.3;100.0
22674;DHT22;11504;43.334;21.918;2024-01-11T19:27:47;-0.3;100.0
22674;DHT22;11504;43.334;21.918;2024-01-11T19:32:23;-0.3;100.0
22674;DHT22;11504;43.334;21.918;2024-01-11T19:37:00;-0.3;100.0
22674;DHT22;11504;43.334;21.918;2024-01-11T19:41:37;-0.3;100.0
22674;DHT22;11504;43.334;21.918;2024-01-11T19:46:17;-0.4;100.0
22674;DHT22;11504;43.334;21.918;2024-01-11T19:50:54;-0.4;100.0
22674;DHT22;11504;43.334;21.918;2024-01-11T19:55:30;-0.4;100.0
22674;DHT22;11504;43.334;21.918;2024-01-11T20:00:09;-0.4;100.0
22674;DHT22;11504;43.334;21.918;2024-01-11T20:04:49;-0.4;100.0
22674;DHT22;11504;43.334;21.918;2024-01-11T20:09:26;-0.4;100.0
22674;DHT22;11504;43.334;21.918;2024-01-11T20:14:02;-0.4;100.0
22674;DHT22;11504;43.334;21.918;2024-01-11T20:18:39;-0.4;100.0
22674;DHT22;11504;43.334;21.918;2024-01-11T20:23:15;-0.4;100.0
22674;DHT22;11504;43.334;21.918;2024-01-11T20:27:52;-0.6;100.0
22674;DHT22;11504;43.334;21.918;2024-01-11T20:32:29;-0.6;100.0
22674;DHT22;11504;43.334;21.918;2024-01-11T20:37:06;-0.8;100.0
22674;DHT22;11504;43.334;21.918;2024-01-11T20:41:44;-0.8;100.0
22674;DHT22;11504;43.334;21.918;2024-01-11T20:46:22;-0.8;100.0
22674;DHT22;11504;43.334;21.918;2024-01-11T20:50:58;-0.8;100.0
22674;DHT22;11504;43.334;21.918;2024-01-11T20:55:35;-0.8;100.0
22674;DHT22;11504;43.334;21.918;2024-01-11T21:09:27;-1.3;100.0
22674;DHT22;11504;43.334;21.918;2024-01-11T21:14:03;-1.3;100.0
22674;DHT22;11504;43.334;21.918;2024-01-11T21:18:40;-1.3;100.0
22674;DHT22;11504;43.334;21.918;2024-01-11T21:23:16;-1.3;100.0
22674;DHT22;11504;43.334;21.918;2024-01-11T21:27:52;-1.2;100.0
22674;DHT22;11504;43.334;21.918;2024-01-11T21:32:29;-1.2;100.0
22674;DHT22;11504;43.334;21.918;2024-01-11T21:37:05;-1.2;100.0
22674;DHT22;11504;43.334;21.918;2024-01-11T21:41:41;-1.2;100.0
22674;DHT22;11504;43.334;21.918;2024-01-11T21:46:18;-1.2;100.0
22674;DHT22;11504;43.334;21.918;2024-01-11T21:50:55;-1.2;100.0
22674;DHT22;11504;43.334;21.918;2024-01-11T21:55:31;-1.2;100.0
22674;DHT22;11504;43.334;21.918;2024-01-11T22:00:11;-1.2;100.0
22674;DHT22;11504;43.334;21.918;2024-01-11T22:04:47;-1.2;100.0
22674;DHT22;11504;43.334;21.918;2024-01-11T22:09:24;-1.2;100.0
22674;DHT22;11504;43.334;21.918;2024-01-11T22:14:00;-1.2;100.0
22674;DHT22;11504;43.334;21.918;2024-01-11T22:18:37;-1.1;100.0
22674;DHT22;11504;43.334;21.918;2024-01-11T22:23:13;-1.1;100.0
22674;DHT22;11504;43.334;21.918;2024-01-11T22:27:50;-1.1;100.0
22674;DHT22;11504;43.334;21.918;2024-01-11T22:32:27;-1.1;100.0
22674;DHT22;11504;43.334;21.918;2024-01-11T22:37:03;-1.1;100.0
22674;DHT22;11504;43.334;21.918;2024-01-11T22:41:40;-1.1;100.0
22674;DHT22;11504;43.334;21.918;2024-01-11T22:46:17;-1.0;100.0
22674;DHT22;11504;43.334;21.918;2024-01-11T22:50:53;-1.0;100.0
22674;DHT22;11504;43.334;21.918;2024-01-11T22:55:30;-1.0;100.0
22674;DHT22;11504;43.334;21.918;2024-01-11T23:00:09;-1.0;100.0
22674;DHT22;11504;43.334;21.918;2024-01-11T23:04:47;-1.0;100.0
22674;DHT22;11504;43.334;21.918;2024-01-11T23:09:27;-1.0;100.0
22674;DHT22;11504;43.334;21.918;2024-01-11T23:14:04;-1.0;100.0
22674;DHT22;11504;43.334;21.918;2024-01-11T23:18:40;-1.0;100.0
22674;DHT22;11504;43.334;21.918;2024-01-11T23:23:17;-1.0;100.0
22674;DHT22;11504;43.334;21.918;2024-01-11T23:27:53;-1.0;100.0
22674;DHT22;11504;43.334;21.918;2024-01-11T23:32:29;-1.0;100.0
22674;DHT22;11504;43.334;21.918;2024-01-11T23:37:05;-1.0;100.0
22674;DHT22;11504;43.334;21.918;2024-01-11T23:41:41;-1.0;100.0
22674;DHT22;11504;43.334;21.918;2024-01-11T23:46:17;-1.1;100.0
22674;DHT22;11504;43.334;21.918;2024-01-11T23:50:53;-1.1;100.0
22674;DHT22;11504;43.334;21.918;2024-01-11T23:55:29;-1.1;100.0
